createdAt,value
2022-12-18T00:02:01.408Z,-3.20
2022-12-18T00:04:30.219Z,-3.20
2022-12-18T00:06:58.436Z,-3.20
2022-12-18T00:09:31.373Z,-3.30
2022-12-18T00:14:46.875Z,-3.20
2022-12-18T00:17:16.408Z,-3.20
2022-12-18T00:19:44.548Z,-3.20
2022-12-18T00:22:12.682Z,-3.20
2022-12-18T00:24:40.832Z,-3.30
2022-12-18T00:27:09.398Z,-3.30
2022-12-18T00:29:37.549Z,-3.30
2022-12-18T00:32:05.810Z,-3.30
2022-12-18T00:34:35.411Z,-3.40
2022-12-18T00:37:03.551Z,-3.40
2022-12-18T00:39:31.766Z,-3.40
2022-12-18T00:42:17.223Z,-3.50
2022-12-18T00:44:45.380Z,-3.50
2022-12-18T00:47:13.546Z,-3.60
2022-12-18T00:49:43.115Z,-3.60
2022-12-18T00:52:11.263Z,-3.60
2022-12-18T00:54:39.432Z,-3.60
2022-12-18T00:57:07.569Z,-3.60
2022-12-18T00:59:35.735Z,-3.70
2022-12-18T01:02:04.114Z,-3.70
2022-12-18T01:04:34.211Z,-3.70
2022-12-18T01:07:03.729Z,-3.70
2022-12-18T01:09:33.250Z,-3.60
2022-12-18T01:12:01.415Z,-3.60
2022-12-18T01:14:30.756Z,-3.60
2022-12-18T01:16:59.023Z,-3.60
2022-12-18T01:19:27.231Z,-3.60
2022-12-18T01:21:55.359Z,-3.60
2022-12-18T01:24:25.066Z,-3.60
2022-12-18T01:26:53.254Z,-3.60
2022-12-18T01:29:21.422Z,-3.50
2022-12-18T01:31:49.593Z,-3.50
2022-12-18T01:34:17.944Z,-3.50
2022-12-18T01:36:46.116Z,-3.50
2022-12-18T01:39:15.675Z,-3.50
2022-12-18T01:42:02.463Z,-3.50
2022-12-18T01:44:55.925Z,-3.50
2022-12-18T01:47:28.134Z,-3.50
2022-12-18T01:49:58.200Z,-3.50
2022-12-18T01:52:27.975Z,-3.50
2022-12-18T01:54:57.816Z,-3.50
2022-12-18T01:57:28.358Z,-3.50
2022-12-18T02:00:01.154Z,-3.50
2022-12-18T02:02:30.838Z,-3.50
2022-12-18T02:04:59.113Z,-3.50
2022-12-18T02:07:37.107Z,-3.50
2022-12-18T02:10:10.384Z,-3.50
2022-12-18T02:12:47.413Z,-3.50
2022-12-18T02:15:21.275Z,-3.50
2022-12-18T02:17:56.653Z,-3.50
2022-12-18T02:20:30.211Z,-3.50
2022-12-18T02:23:17.430Z,-3.50
2022-12-18T02:26:19.079Z,-3.50
2022-12-18T02:28:51.440Z,-3.50
2022-12-18T02:31:23.232Z,-3.60
2022-12-18T02:33:52.101Z,-3.60
2022-12-18T02:36:23.485Z,-3.60
2022-12-18T02:38:54.016Z,-3.60
2022-12-18T02:41:27.267Z,-3.60
2022-12-18T02:43:58.644Z,-3.60
2022-12-18T02:46:33.059Z,-3.70
2022-12-18T02:49:17.119Z,-3.70
2022-12-18T02:51:53.228Z,-3.70
2022-12-18T02:54:34.063Z,-3.70
2022-12-18T02:57:13.660Z,-3.80
2022-12-18T02:59:47.856Z,-3.80
2022-12-18T03:02:23.300Z,-3.80
2022-12-18T03:04:58.715Z,-3.80
2022-12-18T03:07:36.466Z,-3.80
2022-12-18T03:10:06.932Z,-3.80
2022-12-18T03:12:40.270Z,-3.80
2022-12-18T03:15:17.446Z,-3.80
2022-12-18T03:17:54.669Z,-3.80
2022-12-18T03:20:25.585Z,-3.80
2022-12-18T03:22:57.518Z,-3.80
2022-12-18T03:25:27.818Z,-3.90
2022-12-18T03:28:00.839Z,-3.90
2022-12-18T03:30:33.803Z,-3.90
2022-12-18T03:33:07.310Z,-4.00
2022-12-18T03:35:39.805Z,-4.00
2022-12-18T03:38:08.130Z,-4.00
2022-12-18T03:40:47.126Z,-4.00
2022-12-18T03:43:23.013Z,-4.00
2022-12-18T03:45:56.115Z,-4.10
2022-12-18T03:48:31.725Z,-4.10
2022-12-18T03:51:03.751Z,-4.00
2022-12-18T03:53:40.383Z,-4.00
2022-12-18T03:56:10.905Z,-4.00
2022-12-18T03:58:42.241Z,-4.10
2022-12-18T04:01:14.438Z,-4.00
2022-12-18T04:03:45.598Z,-4.00
2022-12-18T04:06:14.919Z,-4.00
2022-12-18T04:08:43.697Z,-4.00
2022-12-18T04:11:11.944Z,-4.00
2022-12-18T04:13:42.298Z,-4.00
2022-12-18T04:16:11.455Z,-4.00
2022-12-18T04:18:39.647Z,-4.00
2022-12-18T04:21:07.820Z,-4.00
2022-12-18T04:23:36.016Z,-4.00
2022-12-18T04:26:04.202Z,-4.00
2022-12-18T04:28:32.338Z,-4.00
2022-12-18T04:31:02.038Z,-4.00
2022-12-18T04:33:30.236Z,-4.00
2022-12-18T04:35:58.928Z,-4.00
2022-12-18T04:38:27.069Z,-4.00
2022-12-18T04:40:55.246Z,-4.00
2022-12-18T04:43:23.536Z,-4.00
2022-12-18T04:45:51.772Z,-4.00
2022-12-18T04:48:21.315Z,-4.00
2022-12-18T04:50:50.308Z,-4.10
2022-12-18T04:53:18.496Z,-4.10
2022-12-18T04:55:46.645Z,-4.10
2022-12-18T04:58:14.798Z,-4.10
2022-12-18T05:00:42.978Z,-4.10
2022-12-18T05:03:11.157Z,-4.10
2022-12-18T05:05:40.687Z,-4.10
2022-12-18T05:08:08.838Z,-4.10
2022-12-18T05:10:38.454Z,-4.10
2022-12-18T05:13:06.772Z,-4.10
2022-12-18T05:15:35.476Z,-4.10
2022-12-18T05:18:04.708Z,-4.10
2022-12-18T05:20:33.527Z,-4.10
2022-12-18T05:23:03.062Z,-4.10
2022-12-18T05:25:31.268Z,-4.20
2022-12-18T05:27:59.506Z,-4.20
2022-12-18T05:30:28.579Z,-4.20
2022-12-18T05:32:56.855Z,-4.20
2022-12-18T05:35:25.063Z,-4.20
2022-12-18T05:37:53.246Z,-4.20
2022-12-18T05:40:22.811Z,-4.20
2022-12-18T05:42:50.980Z,-4.20
2022-12-18T05:45:19.307Z,-4.20
2022-12-18T05:47:47.464Z,-4.20
2022-12-18T05:50:15.634Z,-4.20
2022-12-18T05:52:43.787Z,-4.20
2022-12-18T05:55:12.122Z,-4.30
2022-12-18T05:57:41.683Z,-4.30
2022-12-18T06:00:11.408Z,-4.30
2022-12-18T06:02:39.599Z,-4.30
2022-12-18T06:05:08.475Z,-4.30
2022-12-18T06:07:36.636Z,-4.30
2022-12-18T06:10:05.204Z,-4.30
2022-12-18T06:12:34.487Z,-4.30
2022-12-18T06:15:04.493Z,-4.40
2022-12-18T06:17:33.235Z,-4.40
2022-12-18T06:20:02.111Z,-4.40
2022-12-18T06:22:30.372Z,-4.40
2022-12-18T06:24:58.559Z,-4.40
2022-12-18T06:27:26.948Z,-4.50
2022-12-18T06:29:55.065Z,-4.40
2022-12-18T06:32:24.763Z,-4.40
2022-12-18T06:34:52.968Z,-4.40
2022-12-18T06:37:21.212Z,-4.40
2022-12-18T06:39:49.399Z,-4.50
2022-12-18T06:42:17.563Z,-4.50
2022-12-18T06:44:45.776Z,-4.50
2022-12-18T06:47:13.917Z,-4.50
2022-12-18T06:49:43.423Z,-4.50
2022-12-18T06:52:11.535Z,-4.50
2022-12-18T06:54:39.706Z,-4.50
2022-12-18T06:57:07.860Z,-4.50
2022-12-18T06:59:36.308Z,-4.50
2022-12-18T07:02:04.525Z,-4.50
2022-12-18T07:04:33.468Z,-4.50
2022-12-18T07:07:02.995Z,-4.50
2022-12-18T07:09:31.171Z,-4.50
2022-12-18T07:11:59.296Z,-4.50
2022-12-18T07:14:27.643Z,-4.50
2022-12-18T07:16:55.960Z,-4.50
2022-12-18T07:19:24.272Z,-4.50
2022-12-18T07:21:52.730Z,-4.50
2022-12-18T07:24:22.386Z,-4.50
2022-12-18T07:26:50.599Z,-4.50
2022-12-18T07:29:18.771Z,-4.50
2022-12-18T07:31:47.059Z,-4.50
2022-12-18T07:34:16.335Z,-4.40
2022-12-18T07:36:44.907Z,-4.50
2022-12-18T07:39:13.935Z,-4.50
2022-12-18T07:41:47.541Z,-4.50
2022-12-18T07:44:15.979Z,-4.50
2022-12-18T07:46:44.114Z,-4.50
2022-12-18T07:49:12.252Z,-4.50
2022-12-18T07:51:40.398Z,-4.50
2022-12-18T07:54:08.533Z,-4.50
2022-12-18T07:56:36.664Z,-4.50
2022-12-18T07:59:06.196Z,-4.50
2022-12-18T08:01:35.267Z,-4.50
2022-12-18T08:04:03.491Z,-4.50
2022-12-18T08:06:31.829Z,-4.50
2022-12-18T08:09:00.059Z,-4.50
2022-12-18T08:11:29.869Z,-4.40
2022-12-18T08:13:58.791Z,-4.40
2022-12-18T08:16:28.516Z,-4.40
2022-12-18T08:18:57.064Z,-4.40
2022-12-18T08:21:27.322Z,-4.40
2022-12-18T08:23:57.066Z,-4.40
2022-12-18T08:26:25.913Z,-4.30
2022-12-18T08:28:55.754Z,-4.30
2022-12-18T08:31:24.577Z,-4.30
2022-12-18T08:33:55.358Z,-4.30
2022-12-18T08:36:24.575Z,-4.30
2022-12-18T08:38:53.845Z,-4.20
2022-12-18T08:41:23.036Z,-4.20
2022-12-18T08:44:08.707Z,-4.20
2022-12-18T08:46:38.940Z,-4.20
2022-12-18T08:49:09.481Z,-4.10
2022-12-18T08:51:38.136Z,-4.10
2022-12-18T08:54:07.486Z,-4.00
2022-12-18T08:56:35.991Z,-3.90
2022-12-18T08:59:05.290Z,-3.90
2022-12-18T09:01:33.882Z,-3.80
2022-12-18T09:04:03.996Z,-3.70
2022-12-18T09:06:34.385Z,-3.70
2022-12-18T09:09:02.592Z,-3.60
2022-12-18T09:11:32.289Z,-3.50
2022-12-18T09:14:01.906Z,-3.50
2022-12-18T09:16:32.639Z,-3.40
2022-12-18T09:19:01.697Z,-3.30
2022-12-18T09:21:33.468Z,-3.20
2022-12-18T09:24:08.663Z,-3.10
2022-12-18T09:26:37.258Z,-3.00
2022-12-18T09:29:05.622Z,-2.90
2022-12-18T09:31:33.790Z,-2.80
2022-12-18T09:34:02.077Z,-2.80
2022-12-18T09:36:30.264Z,-2.70
2022-12-18T09:38:58.748Z,-2.60
2022-12-18T09:41:47.912Z,-2.50
2022-12-18T09:44:22.299Z,-2.40
2022-12-18T09:46:56.778Z,-2.30
2022-12-18T09:49:28.753Z,-2.20
2022-12-18T09:52:01.625Z,-2.10
2022-12-18T09:54:35.784Z,-2.00
2022-12-18T09:57:06.116Z,-1.90
2022-12-18T09:59:38.140Z,-1.80
2022-12-18T10:02:16.789Z,-1.70
2022-12-18T10:04:45.688Z,-1.60
2022-12-18T10:07:20.022Z,-1.50
2022-12-18T10:09:55.887Z,-1.40
2022-12-18T10:12:34.840Z,-1.30
2022-12-18T10:15:09.547Z,-1.30
2022-12-18T10:17:43.863Z,-1.20
2022-12-18T10:20:18.143Z,-1.10
2022-12-18T10:22:55.480Z,-1.10
2022-12-18T10:25:27.451Z,-1.00
2022-12-18T10:28:01.278Z,-0.90
2022-12-18T10:30:29.687Z,-0.90
2022-12-18T10:33:03.051Z,-0.80
2022-12-18T10:35:31.366Z,-0.70
2022-12-18T10:38:05.759Z,-0.60
2022-12-18T10:40:34.676Z,-0.60
2022-12-18T10:43:12.978Z,-0.50
2022-12-18T10:45:41.549Z,-0.40
2022-12-18T10:48:21.691Z,-0.40
2022-12-18T10:53:44.487Z,-0.30
2022-12-18T10:56:12.769Z,-0.20
2022-12-18T10:58:42.640Z,-0.10
2022-12-18T11:01:13.456Z,0.00
2022-12-18T11:03:44.272Z,0.00
2022-12-18T11:06:14.479Z,0.10
2022-12-18T11:08:44.844Z,0.10
2022-12-18T11:11:21.312Z,0.20
2022-12-18T11:14:01.414Z,0.20
2022-12-18T11:16:31.896Z,0.30
2022-12-18T11:19:21.985Z,0.60
2022-12-18T11:21:51.006Z,1.30
2022-12-18T11:24:27.199Z,2.20
2022-12-18T11:26:59.632Z,3.00
2022-12-18T11:29:34.838Z,3.80
2022-12-18T11:32:29.369Z,4.40
2022-12-18T11:35:03.257Z,4.50
2022-12-18T11:37:33.489Z,4.40
2022-12-18T11:40:09.127Z,4.20
2022-12-18T11:42:44.431Z,3.90
2022-12-18T11:45:29.511Z,3.60
2022-12-18T11:48:06.720Z,3.30
2022-12-18T11:50:45.619Z,3.00
2022-12-18T11:53:15.027Z,2.80
2022-12-18T11:55:51.976Z,2.60
2022-12-18T11:58:36.220Z,2.40
2022-12-18T12:01:16.095Z,2.20
2022-12-18T12:04:07.894Z,2.00
2022-12-18T12:06:43.064Z,1.80
2022-12-18T12:09:22.154Z,1.70
2022-12-18T12:12:04.036Z,1.60
2022-12-18T12:14:48.977Z,1.50
2022-12-18T12:17:31.296Z,1.40
2022-12-18T12:20:06.511Z,1.30
2022-12-18T12:22:46.017Z,1.20
2022-12-18T12:25:29.204Z,1.10
2022-12-18T12:28:07.211Z,1.00
2022-12-18T12:30:42.887Z,0.90
2022-12-18T12:33:25.374Z,0.80
2022-12-18T12:36:01.711Z,0.70
2022-12-18T12:38:33.226Z,0.70
2022-12-18T12:41:04.633Z,0.70
2022-12-18T12:43:42.202Z,0.70
2022-12-18T12:46:18.324Z,0.60
2022-12-18T12:48:51.431Z,0.60
2022-12-18T12:51:23.246Z,0.60
2022-12-18T12:53:51.588Z,0.60
2022-12-18T12:56:22.253Z,0.60
2022-12-18T12:59:02.011Z,0.60
2022-12-18T13:01:38.009Z,0.50
2022-12-18T13:04:21.585Z,0.50
2022-12-18T13:06:56.518Z,0.50
2022-12-18T13:09:25.003Z,0.50
2022-12-18T13:12:10.715Z,0.50
2022-12-18T13:14:40.649Z,0.50
2022-12-18T13:17:32.038Z,0.40
2022-12-18T13:20:13.301Z,0.40
2022-12-18T13:22:48.843Z,0.40
2022-12-18T13:25:31.715Z,0.40
2022-12-18T13:28:05.064Z,0.50
2022-12-18T13:30:48.448Z,0.50
2022-12-18T13:34:16.557Z,0.50
2022-12-18T13:36:36.401Z,0.50
2022-12-18T13:39:28.904Z,0.50
2022-12-18T13:42:57.785Z,0.50
2022-12-18T13:45:50.077Z,0.40
2022-12-18T13:48:24.419Z,0.40
2022-12-18T13:50:58.666Z,0.30
2022-12-18T13:53:32.580Z,0.30
2022-12-18T13:56:01.249Z,0.30
2022-12-18T13:58:29.485Z,0.30
2022-12-18T14:01:00.236Z,0.30
2022-12-18T14:03:31.465Z,0.30
2022-12-18T14:06:07.548Z,0.30
2022-12-18T14:08:41.647Z,0.30
2022-12-18T14:11:22.300Z,0.30
2022-12-18T14:13:51.596Z,0.30
2022-12-18T14:16:20.141Z,0.30
2022-12-18T14:18:51.111Z,0.40
2022-12-18T14:21:24.260Z,0.40
2022-12-18T14:24:06.224Z,0.30
2022-12-18T14:26:34.521Z,0.30
2022-12-18T14:29:19.556Z,0.40
2022-12-18T14:32:05.872Z,0.40
2022-12-18T14:34:34.110Z,0.30
2022-12-18T14:37:02.336Z,0.40
2022-12-18T14:39:31.956Z,0.40
2022-12-18T14:42:00.151Z,0.40
2022-12-18T14:44:34.516Z,0.30
2022-12-18T14:47:07.376Z,0.30
2022-12-18T14:49:37.800Z,0.30
2022-12-18T14:52:07.794Z,0.30
2022-12-18T14:54:39.605Z,0.30
2022-12-18T14:57:23.316Z,0.30
2022-12-18T14:59:52.138Z,0.30
2022-12-18T15:02:24.027Z,0.30
2022-12-18T15:05:02.446Z,0.30
2022-12-18T15:07:42.955Z,0.30
2022-12-18T15:10:16.639Z,0.30
2022-12-18T15:12:46.420Z,0.30
2022-12-18T15:15:54.099Z,0.30
2022-12-18T15:18:24.512Z,0.20
2022-12-18T15:20:55.885Z,0.10
2022-12-18T15:23:25.868Z,0.10
2022-12-18T15:26:01.756Z,0.10
2022-12-18T15:28:34.348Z,0.10
2022-12-18T15:31:05.188Z,0.10
2022-12-18T15:33:36.563Z,0.00
2022-12-18T15:36:10.964Z,0.00
2022-12-18T15:38:39.247Z,0.00
2022-12-18T15:41:17.852Z,0.00
2022-12-18T15:43:50.203Z,-0.10
2022-12-18T15:46:20.759Z,0.00
2022-12-18T15:48:50.783Z,0.00
2022-12-18T15:51:22.353Z,0.00
2022-12-18T15:53:52.335Z,0.00
2022-12-18T15:56:39.462Z,0.00
2022-12-18T15:59:13.109Z,0.00
2022-12-18T16:01:42.760Z,0.00
2022-12-18T16:04:13.914Z,0.10
2022-12-18T16:07:12.828Z,0.10
2022-12-18T16:09:30.729Z,0.10
2022-12-18T16:12:00.411Z,0.10
2022-12-18T16:14:30.656Z,0.20
2022-12-18T16:17:00.545Z,0.20
2022-12-18T16:19:29.785Z,0.20
2022-12-18T16:21:59.388Z,0.20
2022-12-18T16:24:29.618Z,0.20
2022-12-18T16:27:00.853Z,0.20
2022-12-18T16:29:30.866Z,0.20
2022-12-18T16:32:00.653Z,0.20
2022-12-18T16:34:32.141Z,0.20
2022-12-18T16:37:06.449Z,0.20
2022-12-18T16:39:35.467Z,0.20
2022-12-18T16:42:06.963Z,0.20
2022-12-18T16:44:35.241Z,0.20
2022-12-18T16:47:04.371Z,0.20
2022-12-18T16:49:33.422Z,0.20
2022-12-18T16:52:01.568Z,0.20
2022-12-18T16:54:30.484Z,0.20
2022-12-18T16:56:58.987Z,0.20
2022-12-18T16:59:29.259Z,0.20
2022-12-18T17:01:58.446Z,0.20
2022-12-18T17:04:26.755Z,0.30
2022-12-18T17:06:54.936Z,0.30
2022-12-18T17:09:25.543Z,0.30
2022-12-18T17:11:53.976Z,0.30
2022-12-18T17:14:24.596Z,0.30
2022-12-18T17:17:19.784Z,0.30
2022-12-18T17:19:42.932Z,0.40
2022-12-18T17:22:11.111Z,0.40
2022-12-18T17:24:39.244Z,0.40
2022-12-18T17:27:08.605Z,0.40
2022-12-18T17:29:39.969Z,0.50
2022-12-18T17:32:13.320Z,0.50
2022-12-18T17:34:41.659Z,0.50
2022-12-18T17:37:10.145Z,0.60
2022-12-18T17:39:38.751Z,0.90
2022-12-18T17:42:07.704Z,1.50
2022-12-18T17:44:37.702Z,2.20
2022-12-18T17:47:06.171Z,3.10
2022-12-18T17:49:35.868Z,4.00
2022-12-18T17:52:04.023Z,4.70
2022-12-18T17:54:33.111Z,5.40
2022-12-18T17:57:01.245Z,5.80
2022-12-18T17:59:29.458Z,6.00
2022-12-18T18:01:57.749Z,6.00
2022-12-18T18:04:26.036Z,5.80
2022-12-18T18:06:55.599Z,5.50
2022-12-18T18:09:23.798Z,5.20
2022-12-18T18:12:09.559Z,4.90
2022-12-18T18:14:37.947Z,4.60
2022-12-18T18:17:07.093Z,4.30
2022-12-18T18:19:35.736Z,4.00
2022-12-18T18:22:05.277Z,3.70
2022-12-18T18:24:34.678Z,3.50
2022-12-18T18:27:02.887Z,3.30
2022-12-18T18:29:31.464Z,3.10
2022-12-18T18:32:00.399Z,2.90
2022-12-18T18:34:30.934Z,2.70
2022-12-18T18:37:00.253Z,2.50
2022-12-18T18:39:30.430Z,2.40
2022-12-18T18:41:59.378Z,2.30
2022-12-18T18:44:27.533Z,2.20
2022-12-18T18:46:56.848Z,2.10
2022-12-18T18:49:27.410Z,2.00
2022-12-18T18:51:56.518Z,1.90
2022-12-18T18:54:24.730Z,1.90
2022-12-18T18:59:42.535Z,1.80
2022-12-18T19:02:12.736Z,1.70
2022-12-18T19:04:45.829Z,1.70
2022-12-18T19:07:29.765Z,1.60
2022-12-18T19:10:04.693Z,1.60
2022-12-18T19:12:52.851Z,1.50
2022-12-18T19:15:21.629Z,1.40
2022-12-18T19:17:49.908Z,1.40
2022-12-18T19:20:18.612Z,1.30
2022-12-18T19:22:52.208Z,1.30
2022-12-18T19:25:28.146Z,1.20
2022-12-18T19:28:21.430Z,1.20
2022-12-18T19:30:53.589Z,1.10
2022-12-18T19:33:43.728Z,1.10
2022-12-18T19:36:15.100Z,1.10
2022-12-18T19:38:45.454Z,1.10
2022-12-18T19:41:14.010Z,1.10
2022-12-18T19:43:44.718Z,1.10
2022-12-18T19:46:15.452Z,1.10
2022-12-18T19:48:45.094Z,1.10
2022-12-18T19:51:17.112Z,1.10
2022-12-18T19:53:45.544Z,1.10
2022-12-18T19:56:15.669Z,1.20
2022-12-18T19:58:45.634Z,1.20
2022-12-18T20:01:16.545Z,1.20
2022-12-18T20:03:51.881Z,1.20
2022-12-18T20:06:25.344Z,1.20
2022-12-18T20:08:59.568Z,1.30
2022-12-18T20:11:29.563Z,1.30
2022-12-18T20:13:59.417Z,1.30
2022-12-18T20:16:27.762Z,1.40
2022-12-18T20:18:56.100Z,1.40
2022-12-18T20:21:25.308Z,1.40
2022-12-18T20:23:54.852Z,1.50
2022-12-18T20:26:23.344Z,1.50
2022-12-18T20:28:51.627Z,1.50
2022-12-18T20:31:21.453Z,1.50
2022-12-18T20:33:50.987Z,1.50
2022-12-18T20:36:23.513Z,1.40
2022-12-18T20:38:56.986Z,1.40
2022-12-18T20:41:31.041Z,1.50
2022-12-18T20:44:07.313Z,1.50
2022-12-18T20:46:47.275Z,1.50
2022-12-18T20:49:15.458Z,1.50
2022-12-18T20:51:43.623Z,1.50
2022-12-18T20:54:12.119Z,1.60
2022-12-18T20:56:40.428Z,1.60
2022-12-18T20:59:08.576Z,1.60
2022-12-18T21:01:36.866Z,1.70
2022-12-18T21:04:08.184Z,1.70
2022-12-18T21:06:36.891Z,1.70
2022-12-18T21:09:05.248Z,1.70
2022-12-18T21:11:52.037Z,1.70
2022-12-18T21:14:21.619Z,1.70
2022-12-18T21:16:54.596Z,1.80
2022-12-18T21:19:26.048Z,1.80
2022-12-18T21:21:55.873Z,1.80
2022-12-18T21:24:24.413Z,1.80
2022-12-18T21:26:52.968Z,1.80
2022-12-18T21:29:23.341Z,1.90
2022-12-18T21:31:52.020Z,1.80
2022-12-18T21:34:21.911Z,1.80
2022-12-18T21:36:51.572Z,1.80
2022-12-18T21:39:20.189Z,1.80
2022-12-18T21:42:08.329Z,1.80
2022-12-18T21:44:42.335Z,1.80
2022-12-18T21:47:21.963Z,1.80
2022-12-18T21:49:51.947Z,1.70
2022-12-18T21:52:26.242Z,1.70
2022-12-18T21:55:06.269Z,1.70
2022-12-18T21:57:37.444Z,1.70
2022-12-18T22:00:06.671Z,1.70
2022-12-18T22:02:34.948Z,1.70
2022-12-18T22:05:03.261Z,1.70
2022-12-18T22:07:32.972Z,1.70
2022-12-18T22:10:02.018Z,1.70
2022-12-18T22:12:39.790Z,1.70
2022-12-18T22:15:20.397Z,1.70
2022-12-18T22:17:50.503Z,1.70
2022-12-18T22:20:19.948Z,1.70
2022-12-18T22:22:51.744Z,1.70
2022-12-18T22:25:20.118Z,1.80
2022-12-18T22:28:08.265Z,1.80
2022-12-18T22:30:35.692Z,1.80
2022-12-18T22:33:04.180Z,1.80
2022-12-18T22:35:32.373Z,1.80
2022-12-18T22:38:02.236Z,1.90
2022-12-18T22:40:30.723Z,1.90
2022-12-18T22:42:59.123Z,1.90
2022-12-18T22:45:28.085Z,1.90
2022-12-18T22:47:56.644Z,1.90
2022-12-18T22:50:24.831Z,1.90
2022-12-18T22:52:53.052Z,1.90
2022-12-18T22:55:22.612Z,1.90
2022-12-18T22:57:53.551Z,1.90
2022-12-18T23:00:24.137Z,1.90
2022-12-18T23:02:59.720Z,1.90
2022-12-18T23:05:30.029Z,1.90
2022-12-18T23:07:58.366Z,1.90
2022-12-18T23:10:28.975Z,2.00
2022-12-18T23:12:57.139Z,2.00
2022-12-18T23:15:28.045Z,2.00
2022-12-18T23:17:58.735Z,1.90
2022-12-18T23:20:28.042Z,1.90
2022-12-18T23:22:56.296Z,1.90
2022-12-18T23:25:24.636Z,1.90
2022-12-18T23:27:54.201Z,1.90
2022-12-18T23:30:22.510Z,1.90
2022-12-18T23:32:50.704Z,1.90
2022-12-18T23:35:19.607Z,2.00
2022-12-18T23:38:04.487Z,2.00
2022-12-18T23:40:32.764Z,2.00
2022-12-18T23:43:02.464Z,2.10
2022-12-18T23:45:30.623Z,2.10
2022-12-18T23:47:58.757Z,2.10
2022-12-18T23:50:28.775Z,2.10
2022-12-18T23:53:02.101Z,2.10
2022-12-18T23:55:35.076Z,2.10
2022-12-18T23:58:04.615Z,2.10
